Share

Karluk, AK

RAWS BOOTH LAKE AK US (MBTLA2) Elev 170 ft | 57.27 °N, 154.57 °W | Change Station

Current weather conditions updated 51 minutes ago

Overcast
Overcast
41 °F
Feels Like 37 °F
N
6
Wind Variable Wind from NNE
Gusts 13.0 mph
Sunrise 6:51 AM
Sunset 9:42 PM
Moon Waning Gibbous

Today is forecast to be Much Cooler than yesterday.

Pressure 29.83 in
Visibility 7.0 miles
Clouds Overcast 400 ft
Windchill 37 °F
Dew Point 34 °F
Humidity 76%
Rainfall 0.00 in
Snow Depth Not available.
UV 0 out of 16
Pollen Not available.
Air Quality Not available.
Flu Activity Sporadic
METAR PAKN 211054Z 17007KT 7SM OVC004 02/02 A2983 RMK AO2 SLP102 T00170017

More Conditions Fewer Conditions

Pressure 29.83 in
Visibility 7.0 miles
Clouds Overcast 400 ft
Windchill 37 °F
Dew Point 34 °F
Humidity 76%
Rainfall 0.00 in
Snow Depth Not available.
UV 0 out of 16
Pollen Not available.
Air Quality Not available.
Flu Activity Sporadic
METAR PAKN 211054Z 17007KT 7SM OVC004 02/02 A2983 RMK AO2 SLP102 T00170017

More Conditions Fewer Conditions

10-Day Weather Forecast

Almanac

Astronomy

Apr. 21, 2014 Rise Set
Actual Time 6:51 AM AKDT 9:42 PM AKDT
Civil Twilight 6:07 AM AKDT 10:26 PM AKDT
Nautical Twilight 5:09 AM AKDT 11:26 PM AKDT
Astronomical Twilight 3:48 AM AKDT 12:50 AM AKDT
Moon 3:37 AM AKDT 12:16 PM AKDT
Length of Visible Light 16h 19m
Length of Day
14h 50m
Tomorrow will be 4m 47s longer.
Waning Gibbous, 60% of the Moon is Illuminated
Today
Waning Gibbous
Apr 22
Last Quarter
Apr 29
New
May 6
First Quarter
May 14
Full

Today's Extremes

State Highs State Lows

Community

  • Snowy Robin
    Snowy Robin
  • Sun Pillar and Geese
    Sun Pillar and Geese
  • Showers on the Way
    Showers on the Way
  • Easter Morning Fog
    Easter Morning Fog
  • Easter Dance
    Easter Dance

WunderPhotos

Upload Photos

1,703,595 photos uploaded!

Nearby

Snow Depth

Station Depth Elevation
Port Graham 6 in 300 ft
Mcneil Canyon 7 in 1320 ft
Nuka Glacier 31 in 1250 ft
MF Bradley River 20 in 2300 ft
Cooper Lake 20 in 1200 ft

Coastal Water Temperatures

Place Temperature
No Stations Reporting

Earthquake Activity

City Distance Mag. Time & Date
No recent earthquake activity has been reported nearby.
Minimum magnitude displayed is 2.5.

Nearby Weather Stations

Station Location Temp. Windchill Dew Point Humidity Wind Precip. Elev Updated Type
RAWS BOOTH LAKE AK, Karluk, AK 41 °F 37 °F 34 °F 76% NNE  at  6 mph 0.00 in / hr 170 ft 2:54 AM AKDT MADIS
RAWS CHIEF COVE AK, Karluk, AK 42 °F 35 °F 34 °F 73% NE  at  12 mph 0.00 in / hr 68 ft 2:55 AM AKDT MADIS
MARITIME , Karluk, AK 42 °F 34 °F - - NE  at  18 mph 0.00 in / hr 0 ft 2:50 AM AKDT MADIS

Show More Stations Show Fewer Stations

What do you think?

We're not finished. Please let us know what you like, what you don't like, and what you are still missing.